sensor_id;sensor_type;location;lat;lon;timestamp;pressure;altitude;pressure_sealevel;temperature;humidity
14818;BME280;7500;57.698;11.986;2023-01-27T00:00:24;103265.06;;;2.95;100.00
14818;BME280;7500;57.698;11.986;2023-01-27T00:02:51;103262.31;;;2.88;100.00
14818;BME280;7500;57.698;11.986;2023-01-27T00:05:19;103263.22;;;2.88;100.00
14818;BME280;7500;57.698;11.986;2023-01-27T00:07:46;103271.06;;;2.90;100.00
14818;BME280;7500;57.698;11.986;2023-01-27T00:10:16;103264.94;;;2.89;100.00
14818;BME280;7500;57.698;11.986;2023-01-27T00:12:44;103268.47;;;2.90;100.00
14818;BME280;7500;57.698;11.986;2023-01-27T00:15:30;103272.75;;;2.86;100.00
14818;BME280;7500;57.698;11.986;2023-01-27T00:17:57;103277.97;;;2.88;100.00
14818;BME280;7500;57.698;11.986;2023-01-27T00:20:26;103262.91;;;2.75;100.00
14818;BME280;7500;57.698;11.986;2023-01-27T00:23:14;103274.09;;;2.68;100.00
14818;BME280;7500;57.698;11.986;2023-01-27T00:25:58;103275.78;;;2.66;100.00
14818;BME280;7500;57.698;11.986;2023-01-27T00:28:26;103260.78;;;2.56;100.00
14818;BME280;7500;57.698;11.986;2023-01-27T00:30:56;103273.13;;;2.63;100.00
14818;BME280;7500;57.698;11.986;2023-01-27T00:33:23;103257.41;;;2.60;100.00
14818;BME280;7500;57.698;11.986;2023-01-27T00:36:01;103257.41;;;2.60;100.00
14818;BME280;7500;57.698;11.986;2023-01-27T00:38:29;103261.84;;;2.64;100.00
14818;BME280;7500;57.698;11.986;2023-01-27T00:40:56;103259.19;;;2.62;100.00
14818;BME280;7500;57.698;11.986;2023-01-27T00:43:44;103249.59;;;2.60;100.00
14818;BME280;7500;57.698;11.986;2023-01-27T00:46:11;103251.28;;;2.58;100.00
14818;BME280;7500;57.698;11.986;2023-01-27T00:48:38;103252.38;;;2.69;100.00
14818;BME280;7500;57.698;11.986;2023-01-27T00:51:07;103253.13;;;2.63;100.00
14818;BME280;7500;57.698;11.986;2023-01-27T00:53:33;103254.81;;;2.60;100.00
14818;BME280;7500;57.698;11.986;2023-01-27T00:56:00;103260.03;;;2.60;100.00
14818;BME280;7500;57.698;11.986;2023-01-27T00:58:28;103258.31;;;2.62;100.00
14818;BME280;7500;57.698;11.986;2023-01-27T01:00:56;103253.91;;;2.59;100.00
14818;BME280;7500;57.698;11.986;2023-01-27T01:03:24;103261.84;;;2.64;100.00
14818;BME280;7500;57.698;11.986;2023-01-27T01:05:51;103253.97;;;2.61;100.00
14818;BME280;7500;57.698;11.986;2023-01-27T01:08:19;103261.84;;;2.64;100.00
14818;BME280;7500;57.698;11.986;2023-01-27T01:10:46;103279.31;;;2.68;100.00
14818;BME280;7500;57.698;11.986;2023-01-27T01:13:13;103265.53;;;2.75;100.00
14818;BME280;7500;57.698;11.986;2023-01-27T01:15:40;103270.66;;;2.69;100.00
14818;BME280;7500;57.698;11.986;2023-01-27T01:18:08;103254.75;;;2.57;100.00
14818;BME280;7500;57.698;11.986;2023-01-27T01:20:36;103265.94;;;2.53;100.00
14818;BME280;7500;57.698;11.986;2023-01-27T01:23:04;103284.19;;;2.51;100.00
14818;BME280;7500;57.698;11.986;2023-01-27T01:25:32;103257.75;;;2.36;100.00
14818;BME280;7500;57.698;11.986;2023-01-27T01:28:00;103286.88;;;2.56;100.00
14818;BME280;7500;57.698;11.986;2023-01-27T01:30:27;103279.88;;;2.53;100.00
14818;BME280;7500;57.698;11.986;2023-01-27T01:32:55;103265.72;;;2.42;100.00
14818;BME280;7500;57.698;11.986;2023-01-27T01:35:23;103286.72;;;2.50;100.00
14818;BME280;7500;57.698;11.986;2023-01-27T01:37:51;103285.75;;;2.45;100.00
14818;BME280;7500;57.698;11.986;2023-01-27T01:40:18;103273.50;;;2.41;100.00
14818;BME280;7500;57.698;11.986;2023-01-27T01:42:53;103263.06;;;2.41;100.00
14818;BME280;7500;57.698;11.986;2023-01-27T01:45:48;103269.97;;;2.39;100.00
14818;BME280;7500;57.698;11.986;2023-01-27T01:48:20;103275.19;;;2.39;100.00
14818;BME280;7500;57.698;11.986;2023-01-27T01:50:50;103261.97;;;2.30;100.00
14818;BME280;7500;57.698;11.986;2023-01-27T01:53:19;103270.78;;;2.36;100.00
14818;BME280;7500;57.698;11.986;2023-01-27T01:55:47;103279.41;;;2.32;100.00
14818;BME280;7500;57.698;11.986;2023-01-27T01:58:16;103284.66;;;2.34;100.00
14818;BME280;7500;57.698;11.986;2023-01-27T02:00:45;103277.69;;;2.34;100.00
14818;BME280;7500;57.698;11.986;2023-01-27T02:03:13;103277.78;;;2.37;100.00
14818;BME280;7500;57.698;11.986;2023-01-27T02:05:42;103285.44;;;2.30;100.00
14818;BME280;7500;57.698;11.986;2023-01-27T02:08:14;103272.22;;;2.22;100.00
14818;BME280;7500;57.698;11.986;2023-01-27T02:10:42;103281.00;;;2.26;100.00
14818;BME280;7500;57.698;11.986;2023-01-27T02:13:09;103281.91;;;2.28;100.00
14818;BME280;7500;57.698;11.986;2023-01-27T02:15:37;103282.69;;;2.24;100.00
14818;BME280;7500;57.698;11.986;2023-01-27T02:18:05;103271.97;;;2.12;100.00
14818;BME280;7500;57.698;11.986;2023-01-27T02:20:37;103280.69;;;2.14;100.00
14818;BME280;7500;57.698;11.986;2023-01-27T02:23:14;103292.88;;;2.15;100.00
14818;BME280;7500;57.698;11.986;2023-01-27T02:25:52;103302.28;;;2.09;100.00
14818;BME280;7500;57.698;11.986;2023-01-27T02:28:21;103303.13;;;2.08;100.00
14818;BME280;7500;57.698;11.986;2023-01-27T02:30:48;103298.78;;;2.08;100.00
14818;BME280;7500;57.698;11.986;2023-01-27T02:33:15;103292.78;;;2.11;100.00
14818;BME280;7500;57.698;11.986;2023-01-27T02:35:47;103295.41;;;2.12;100.00
14818;BME280;7500;57.698;11.986;2023-01-27T02:38:17;103308.59;;;2.18;100.00
14818;BME280;7500;57.698;11.986;2023-01-27T02:40:47;103312.09;;;2.19;100.00
14818;BME280;7500;57.698;11.986;2023-01-27T02:43:16;103313.88;;;2.20;100.00
14818;BME280;7500;57.698;11.986;2023-01-27T02:45:44;103308.59;;;2.18;100.00
14818;BME280;7500;57.698;11.986;2023-01-27T02:48:12;103308.50;;;2.14;100.00
14818;BME280;7500;57.698;11.986;2023-01-27T02:50:39;103313.59;;;2.09;100.00
14818;BME280;7500;57.698;11.986;2023-01-27T02:53:05;103323.13;;;2.09;100.00
14818;BME280;7500;57.698;11.986;2023-01-27T02:55:32;103337.03;;;2.09;100.00
14818;BME280;7500;57.698;11.986;2023-01-27T02:57:59;103328.28;;;2.07;100.00
14818;BME280;7500;57.698;11.986;2023-01-27T03:00:28;103322.16;;;2.05;100.00
14818;BME280;7500;57.698;11.986;2023-01-27T03:02:54;103320.47;;;2.07;100.00
14818;BME280;7500;57.698;11.986;2023-01-27T03:05:21;103319.78;;;2.14;100.00
14818;BME280;7500;57.698;11.986;2023-01-27T03:07:48;103309.28;;;2.11;100.00
14818;BME280;7500;57.698;11.986;2023-01-27T03:10:15;103310.13;;;2.09;100.00
14818;BME280;7500;57.698;11.986;2023-01-27T03:12:43;103317.03;;;2.08;100.00
14818;BME280;7500;57.698;11.986;2023-01-27T03:15:10;103309.13;;;2.04;100.00
14818;BME280;7500;57.698;11.986;2023-01-27T03:18:03;103313.41;;;2.02;100.00
14818;BME280;7500;57.698;11.986;2023-01-27T03:20:37;103313.38;;;2.00;100.00
14818;BME280;7500;57.698;11.986;2023-01-27T03:23:04;103312.50;;;2.00;100.00
14818;BME280;7500;57.698;11.986;2023-01-27T03:25:30;103308.94;;;1.96;100.00
14818;BME280;7500;57.698;11.986;2023-01-27T03:27:57;103301.06;;;1.95;100.00
14818;BME280;7500;57.698;11.986;2023-01-27T03:30:25;103307.22;;;1.97;100.00
14818;BME280;7500;57.698;11.986;2023-01-27T03:32:52;103309.72;;;1.94;100.00
14818;BME280;7500;57.698;11.986;2023-01-27T03:35:20;103293.16;;;1.90;100.00
14818;BME280;7500;57.698;11.986;2023-01-27T03:37:48;103301.06;;;1.93;100.00
14818;BME280;7500;57.698;11.986;2023-01-27T03:40:33;103306.28;;;1.95;100.00
14818;BME280;7500;57.698;11.986;2023-01-27T03:43:18;103307.78;;;1.85;100.00
14818;BME280;7500;57.698;11.986;2023-01-27T03:46:03;103319.22;;;1.90;100.00
14818;BME280;7500;57.698;11.986;2023-01-27T03:48:49;103314.03;;;1.92;100.00
14818;BME280;7500;57.698;11.986;2023-01-27T03:51:19;103308.78;;;1.90;100.00
14818;BME280;7500;57.698;11.986;2023-01-27T03:53:46;103305.19;;;1.85;100.00
14818;BME280;7500;57.698;11.986;2023-01-27T03:56:13;103306.19;;;1.90;100.00
14818;BME280;7500;57.698;11.986;2023-01-27T03:58:40;103314.84;;;1.89;100.00
14818;BME280;7500;57.698;11.986;2023-01-27T04:01:12;103305.94;;;1.80;100.00
14818;BME280;7500;57.698;11.986;2023-01-27T04:03:39;103310.88;;;1.69;100.00
14818;BME280;7500;57.698;11.986;2023-01-27T04:06:26;103314.44;;;1.73;100.00
14818;BME280;7500;57.698;11.986;2023-01-27T04:09:12;103316.09;;;1.71;100.00
14818;BME280;7500;57.698;11.986;2023-01-27T04:11:39;103310.88;;;1.69;100.00
14818;BME280;7500;57.698;11.986;2023-01-27T04:14:24;103308.97;;;1.64;100.00
14818;BME280;7500;57.698;11.986;2023-01-27T04:16:53;103303.66;;;1.59;100.00
14818;BME280;7500;57.698;11.986;2023-01-27T04:19:20;103286.13;;;1.54;100.00
14818;BME280;7500;57.698;11.986;2023-01-27T04:21:49;103301.00;;;1.58;100.00
14818;BME280;7500;57.698;11.986;2023-01-27T04:24:16;103298.22;;;1.50;100.00
14818;BME280;7500;57.698;11.986;2023-01-27T04:26:49;103295.28;;;1.38;100.00
14818;BME280;7500;57.698;11.986;2023-01-27T04:29:16;103292.00;;;1.45;100.00
14818;BME280;7500;57.698;11.986;2023-01-27T04:31:43;103299.88;;;1.47;100.00
14818;BME280;7500;57.698;11.986;2023-01-27T04:34:11;103307.78;;;1.51;100.00
14818;BME280;7500;57.698;11.986;2023-01-27T04:36:38;103317.34;;;1.52;100.00
14818;BME280;7500;57.698;11.986;2023-01-27T04:39:07;103313.84;;;1.50;100.00
14818;BME280;7500;57.698;11.986;2023-01-27T04:41:35;103312.81;;;1.45;100.00
14818;BME280;7500;57.698;11.986;2023-01-27T04:44:03;103326.56;;;1.40;100.00
14818;BME280;7500;57.698;11.986;2023-01-27T04:46:31;103330.94;;;1.41;100.00
14818;BME280;7500;57.698;11.986;2023-01-27T04:48:58;103330.94;;;1.41;100.00
14818;BME280;7500;57.698;11.986;2023-01-27T04:51:25;103327.31;;;1.36;100.00
14818;BME280;7500;57.698;11.986;2023-01-27T04:53:51;103322.97;;;1.36;100.00
14818;BME280;7500;57.698;11.986;2023-01-27T04:56:25;103317.78;;;1.36;100.00
14818;BME280;7500;57.698;11.986;2023-01-27T04:58:53;103319.69;;;1.42;100.00
14818;BME280;7500;57.698;11.986;2023-01-27T05:01:20;103318.78;;;1.41;100.00
14818;BME280;7500;57.698;11.986;2023-01-27T05:03:47;103315.34;;;1.42;100.00
14818;BME280;7500;57.698;11.986;2023-01-27T05:06:15;103319.63;;;1.40;100.00
14818;BME280;7500;57.698;11.986;2023-01-27T05:08:42;103316.09;;;1.38;100.00
14818;BME280;7500;57.698;11.986;2023-01-27T05:11:09;103313.50;;;1.38;100.00
14818;BME280;7500;57.698;11.986;2023-01-27T05:13:38;103311.88;;;1.42;100.00
14818;BME280;7500;57.698;11.986;2023-01-27T05:16:08;103321.47;;;1.44;100.00
14818;BME280;7500;57.698;11.986;2023-01-27T05:18:35;103312.81;;;1.45;100.00
14818;BME280;7500;57.698;11.986;2023-01-27T05:21:03;103325.84;;;1.45;100.00
14818;BME280;7500;57.698;11.986;2023-01-27T05:23:30;103318.69;;;1.38;100.00
14818;BME280;7500;57.698;11.986;2023-01-27T05:26:09;103314.28;;;1.34;100.00
14818;BME280;7500;57.698;11.986;2023-01-27T05:28:38;103316.81;;;1.31;100.00
14818;BME280;7500;57.698;11.986;2023-01-27T05:31:08;103315.88;;;1.29;100.00
14818;BME280;7500;57.698;11.986;2023-01-27T05:33:35;103315.78;;;1.26;100.00
14818;BME280;7500;57.698;11.986;2023-01-27T05:36:03;103315.72;;;1.23;100.00
14818;BME280;7500;57.698;11.986;2023-01-27T05:38:30;103320.91;;;1.23;100.00
14818;BME280;7500;57.698;11.986;2023-01-27T05:40:59;103316.72;;;1.28;100.00
14818;BME280;7500;57.698;11.986;2023-01-27T05:43:27;103317.72;;;1.33;100.00
14818;BME280;7500;57.698;11.986;2023-01-27T05:46:05;103304.63;;;1.30;100.00
14818;BME280;7500;57.698;11.986;2023-01-27T05:48:33;103287.19;;;1.26;100.00
14818;BME280;7500;57.698;11.986;2023-01-27T05:51:01;103311.19;;;1.49;100.00
14818;BME280;7500;57.698;11.986;2023-01-27T05:53:28;103321.56;;;1.47;100.00
14818;BME280;7500;57.698;11.986;2023-01-27T05:55:55;103324.88;;;1.42;100.00
14818;BME280;7500;57.698;11.986;2023-01-27T05:58:23;103334.47;;;1.43;100.00
14818;BME280;7500;57.698;11.986;2023-01-27T06:00:50;103333.66;;;1.45;100.00
14818;BME280;7500;57.698;11.986;2023-01-27T06:03:18;103306.31;;;1.28;100.00
14818;BME280;7500;57.698;11.986;2023-01-27T06:05:50;103337.75;;;1.37;100.00
14818;BME280;7500;57.698;11.986;2023-01-27T06:08:17;103339.53;;;1.38;100.00
14818;BME280;7500;57.698;11.986;2023-01-27T06:10:44;103332.63;;;1.39;100.00
14818;BME280;7500;57.698;11.986;2023-01-27T06:13:11;103336.00;;;1.36;100.00
14818;BME280;7500;57.698;11.986;2023-01-27T06:15:42;103330.78;;;1.36;100.00
14818;BME280;7500;57.698;11.986;2023-01-27T06:18:09;103337.81;;;1.39;100.00
14818;BME280;7500;57.698;11.986;2023-01-27T06:20:38;103349.09;;;1.39;100.00
14818;BME280;7500;57.698;11.986;2023-01-27T06:23:06;103328.63;;;1.20;100.00
14818;BME280;7500;57.698;11.986;2023-01-27T06:25:36;103351.59;;;1.36;100.00
14818;BME280;7500;57.698;11.986;2023-01-27T06:28:04;103357.59;;;1.32;100.00
14818;BME280;7500;57.698;11.986;2023-01-27T06:30:32;103347.94;;;1.28;100.00
14818;BME280;7500;57.698;11.986;2023-01-27T06:32:59;103348.97;;;1.33;100.00
14818;BME280;7500;57.698;11.986;2023-01-27T06:35:26;103357.50;;;1.29;100.00
14818;BME280;7500;57.698;11.986;2023-01-27T06:37:55;103360.22;;;1.34;100.00
14818;BME280;7500;57.698;11.986;2023-01-27T06:40:23;103318.88;;;1.13;100.00
14818;BME280;7500;57.698;11.986;2023-01-27T06:42:50;103364.72;;;1.39;100.00
14818;BME280;7500;57.698;11.986;2023-01-27T06:45:17;103361.03;;;1.31;100.00
14818;BME280;7500;57.698;11.986;2023-01-27T06:47:44;103360.34;;;1.38;100.00
14818;BME280;7500;57.698;11.986;2023-01-27T06:50:11;103349.00;;;1.36;100.00
14818;BME280;7500;57.698;11.986;2023-01-27T06:52:38;103349.66;;;1.28;100.00
14818;BME280;7500;57.698;11.986;2023-01-27T06:55:07;103357.34;;;1.23;100.00
14818;BME280;7500;57.698;11.986;2023-01-27T06:57:34;103358.19;;;1.22;100.00
14818;BME280;7500;57.698;11.986;2023-01-27T07:00:01;103365.09;;;1.22;100.00
14818;BME280;7500;57.698;11.986;2023-01-27T07:02:28;103367.75;;;1.23;100.00
14818;BME280;7500;57.698;11.986;2023-01-27T07:04:55;103362.63;;;1.26;100.00
14818;BME280;7500;57.698;11.986;2023-01-27T07:07:22;103368.63;;;1.24;100.00
14818;BME280;7500;57.698;11.986;2023-01-27T07:09:49;103358.19;;;1.22;100.00
14818;BME280;7500;57.698;11.986;2023-01-27T07:12:17;103359.94;;;1.23;100.00
14818;BME280;7500;57.698;11.986;2023-01-27T07:14:44;103351.31;;;1.24;100.00
14818;BME280;7500;57.698;11.986;2023-01-27T07:17:11;103355.66;;;1.25;100.00
14818;BME280;7500;57.698;11.986;2023-01-27T07:19:38;103352.06;;;1.20;100.00
14818;BME280;7500;57.698;11.986;2023-01-27T07:22:04;103358.09;;;1.19;100.00
14818;BME280;7500;57.698;11.986;2023-01-27T07:24:31;103348.53;;;1.20;100.00
14818;BME280;7500;57.698;11.986;2023-01-27T07:26:58;103346.84;;;1.20;100.00
14818;BME280;7500;57.698;11.986;2023-01-27T07:29:27;103341.47;;;1.14;100.00
14818;BME280;7500;57.698;11.986;2023-01-27T07:31:54;103345.81;;;1.15;100.00
14818;BME280;7500;57.698;11.986;2023-01-27T07:34:21;103343.13;;;1.12;100.00
14818;BME280;7500;57.698;11.986;2023-01-27T07:36:48;103344.72;;;1.08;100.00
14818;BME280;7500;57.698;11.986;2023-01-27T07:39:15;103339.53;;;1.08;100.00
14818;BME280;7500;57.698;11.986;2023-01-27T07:41:41;103342.19;;;1.09;100.00
14818;BME280;7500;57.698;11.986;2023-01-27T07:44:09;103358.81;;;1.14;100.00
14818;BME280;7500;57.698;11.986;2023-01-27T07:46:37;103350.91;;;1.11;100.00
14818;BME280;7500;57.698;11.986;2023-01-27T07:49:04;103346.66;;;1.14;100.00
14818;BME280;7500;57.698;11.986;2023-01-27T07:51:31;103351.13;;;1.18;100.00
14818;BME280;7500;57.698;11.986;2023-01-27T07:53:58;103359.88;;;1.22;100.00
14818;BME280;7500;57.698;11.986;2023-01-27T07:56:24;103372.03;;;1.21;100.00
14818;BME280;7500;57.698;11.986;2023-01-27T07:58:52;103352.78;;;1.16;100.00
14818;BME280;7500;57.698;11.986;2023-01-27T08:01:19;103360.50;;;1.13;100.00
14818;BME280;7500;57.698;11.986;2023-01-27T08:03:48;103359.47;;;1.07;100.00
14818;BME280;7500;57.698;11.986;2023-01-27T08:06:15;103367.13;;;1.03;100.00
14818;BME280;7500;57.698;11.986;2023-01-27T08:08:42;103376.66;;;1.02;100.00
14818;BME280;7500;57.698;11.986;2023-01-27T08:11:11;103368.22;;;1.10;100.00
14818;BME280;7500;57.698;11.986;2023-01-27T08:13:39;103323.34;;;0.88;100.00
14818;BME280;7500;57.698;11.986;2023-01-27T08:16:08;103366.56;;;1.12;100.00
14818;BME280;7500;57.698;11.986;2023-01-27T08:18:36;103370.91;;;1.13;100.00
14818;BME280;7500;57.698;11.986;2023-01-27T08:21:08;103368.28;;;1.12;100.00
14818;BME280;7500;57.698;11.986;2023-01-27T08:23:35;103373.59;;;1.16;100.00
14818;BME280;7500;57.698;11.986;2023-01-27T08:26:03;103366.69;;;1.17;100.00
14818;BME280;7500;57.698;11.986;2023-01-27T08:28:32;103367.53;;;1.16;100.00
14818;BME280;7500;57.698;11.986;2023-01-27T08:31:04;103363.19;;;1.16;100.00
14818;BME280;7500;57.698;11.986;2023-01-27T08:33:31;103362.19;;;1.11;100.00
14818;BME280;7500;57.698;11.986;2023-01-27T08:36:02;103348.06;;;1.04;100.00
14818;BME280;7500;57.698;11.986;2023-01-27T08:38:30;103364.09;;;1.17;100.00
14818;BME280;7500;57.698;11.986;2023-01-27T08:41:02;103363.03;;;1.10;100.00
14818;BME280;7500;57.698;11.986;2023-01-27T08:43:29;103356.91;;;1.08;100.00
14818;BME280;7500;57.698;11.986;2023-01-27T08:45:56;103365.78;;;1.15;100.00
14818;BME280;7500;57.698;11.986;2023-01-27T08:48:25;103357.25;;;1.20;100.00
14818;BME280;7500;57.698;11.986;2023-01-27T08:50:52;103355.56;;;1.22;100.00
14818;BME280;7500;57.698;11.986;2023-01-27T08:53:18;103364.03;;;1.15;100.00
14818;BME280;7500;57.698;11.986;2023-01-27T08:55:47;103366.91;;;1.24;100.00
14818;BME280;7500;57.698;11.986;2023-01-27T08:58:14;103362.72;;;1.29;100.00
14818;BME280;7500;57.698;11.986;2023-01-27T09:00:41;103354.94;;;1.31;100.00
14818;BME280;7500;57.698;11.986;2023-01-27T09:03:08;103356.81;;;1.36;100.00
14818;BME280;7500;57.698;11.986;2023-01-27T09:05:36;103358.72;;;1.42;100.00
14818;BME280;7500;57.698;11.986;2023-01-27T09:08:04;103350.84;;;1.40;100.00
14818;BME280;7500;57.698;11.986;2023-01-27T09:10:31;103347.41;;;1.41;100.00
14818;BME280;7500;57.698;11.986;2023-01-27T09:13:00;103346.84;;;1.51;100.00
14818;BME280;7500;57.698;11.986;2023-01-27T09:15:27;103341.88;;;1.60;100.00
14818;BME280;7500;57.698;11.986;2023-01-27T09:17:53;103348.09;;;1.65;100.00
14818;BME280;7500;57.698;11.986;2023-01-27T09:20:20;103341.19;;;1.67;100.00
14818;BME280;7500;57.698;11.986;2023-01-27T09:22:48;103352.53;;;1.69;100.00
14818;BME280;7500;57.698;11.986;2023-01-27T09:25:16;103344.41;;;1.59;100.00
14818;BME280;7500;57.698;11.986;2023-01-27T09:27:43;103358.09;;;1.50;100.00
14818;BME280;7500;57.698;11.986;2023-01-27T09:30:14;103354.56;;;1.48;100.00
14818;BME280;7500;57.698;11.986;2023-01-27T09:32:41;103359.94;;;1.54;100.00
14818;BME280;7500;57.698;11.986;2023-01-27T09:35:09;103360.09;;;1.60;100.00
14818;BME280;7500;57.698;11.986;2023-01-27T09:37:40;103359.28;;;1.63;100.00
14818;BME280;7500;57.698;11.986;2023-01-27T09:40:17;103368.06;;;1.66;100.00
14818;BME280;7500;57.698;11.986;2023-01-27T09:43:14;103354.91;;;1.62;100.00
14818;BME280;7500;57.698;11.986;2023-01-27T09:45:57;103355.09;;;1.68;100.00
14818;BME280;7500;57.698;11.986;2023-01-27T09:48:41;103364.75;;;1.72;100.00
14818;BME280;7500;57.698;11.986;2023-01-27T09:51:15;103372.81;;;1.82;100.00
14818;BME280;7500;57.698;11.986;2023-01-27T09:53:58;103368.59;;;1.86;100.00
14818;BME280;7500;57.698;11.986;2023-01-27T09:56:43;103371.16;;;1.84;100.00
14818;BME280;7500;57.698;11.986;2023-01-27T09:59:24;103373.00;;;1.88;100.00
14818;BME280;7500;57.698;11.986;2023-01-27T10:02:03;103349.38;;;1.81;100.00
14818;BME280;7500;57.698;11.986;2023-01-27T10:04:48;103366.19;;;1.93;100.00
14818;BME280;7500;57.698;11.986;2023-01-27T10:10:28;103353.22;;;1.96;100.00
14818;BME280;7500;57.698;11.986;2023-01-27T10:13:07;103338.53;;;1.98;100.00
14818;BME280;7500;57.698;11.986;2023-01-27T10:15:48;103347.38;;;2.06;100.00
14818;BME280;7500;57.698;11.986;2023-01-27T10:18:32;103322.06;;;1.99;100.00
14818;BME280;7500;57.698;11.986;2023-01-27T10:21:10;103341.31;;;2.07;100.00
14818;BME280;7500;57.698;11.986;2023-01-27T10:23:50;103334.41;;;2.08;100.00
14818;BME280;7500;57.698;11.986;2023-01-27T10:26:22;103341.41;;;2.10;100.00
14818;BME280;7500;57.698;11.986;2023-01-27T10:28:58;103349.13;;;2.07;100.00
14818;BME280;7500;57.698;11.986;2023-01-27T10:31:32;103346.44;;;2.03;100.00
14818;BME280;7500;57.698;11.986;2023-01-27T10:34:07;103355.25;;;2.08;100.00
14818;BME280;7500;57.698;11.986;2023-01-27T10:36:44;103362.22;;;2.09;100.00
14818;BME280;7500;57.698;11.986;2023-01-27T10:39:18;103345.78;;;2.11;100.00
14818;BME280;7500;57.698;11.986;2023-01-27T10:41:55;103359.78;;;2.16;100.00
14818;BME280;7500;57.698;11.986;2023-01-27T10:44:40;103347.75;;;2.21;100.00
14818;BME280;7500;57.698;11.986;2023-01-27T10:47:14;103350.47;;;2.25;100.00
14818;BME280;7500;57.698;11.986;2023-01-27T10:49:48;103308.44;;;2.11;100.00
14818;BME280;7500;57.698;11.986;2023-01-27T10:52:20;103344.56;;;2.32;100.00
14818;BME280;7500;57.698;11.986;2023-01-27T10:54:52;103334.97;;;2.31;100.00
14818;BME280;7500;57.698;11.986;2023-01-27T10:57:24;103337.59;;;2.31;100.00
14818;BME280;7500;57.698;11.986;2023-01-27T10:59:59;103334.09;;;2.31;100.00
14818;BME280;7500;57.698;11.986;2023-01-27T11:02:34;103334.94;;;2.30;100.00
14818;BME280;7500;57.698;11.986;2023-01-27T11:05:07;103325.38;;;2.29;100.00
14818;BME280;7500;57.698;11.986;2023-01-27T11:07:44;103330.72;;;2.35;100.00
14818;BME280;7500;57.698;11.986;2023-01-27T11:10:16;103339.41;;;2.34;100.00
14818;BME280;7500;57.698;11.986;2023-01-27T11:12:46;103327.97;;;2.29;100.00
14818;BME280;7500;57.698;11.986;2023-01-27T11:15:18;103340.34;;;2.37;100.00
14818;BME280;7500;57.698;11.986;2023-01-27T11:17:49;103336.81;;;2.35;100.00
14818;BME280;7500;57.698;11.986;2023-01-27T11:20:27;103330.78;;;2.38;100.00
14818;BME280;7500;57.698;11.986;2023-01-27T11:22:59;103247.41;;;2.01;100.00
14818;BME280;7500;57.698;11.986;2023-01-27T11:25:35;103315.19;;;2.41;100.00
14818;BME280;7500;57.698;11.986;2023-01-27T11:28:24;103335.47;;;2.52;100.00
14818;BME280;7500;57.698;11.986;2023-01-27T11:31:01;103327.59;;;2.51;100.00
14818;BME280;7500;57.698;11.986;2023-01-27T11:33:38;103329.38;;;2.52;100.00
14818;BME280;7500;57.698;11.986;2023-01-27T11:36:10;103321.56;;;2.52;100.00
14818;BME280;7500;57.698;11.986;2023-01-27T11:38:37;103329.41;;;2.53;100.00
14818;BME280;7500;57.698;11.986;2023-01-27T11:41:04;103316.56;;;2.62;100.00
14818;BME280;7500;57.698;11.986;2023-01-27T11:43:31;103317.53;;;2.66;100.00
14818;BME280;7500;57.698;11.986;2023-01-27T11:46:01;103313.16;;;2.65;100.00
14818;BME280;7500;57.698;11.986;2023-01-27T11:48:35;103310.69;;;2.71;100.00
14818;BME280;7500;57.698;11.986;2023-01-27T11:51:12;103300.34;;;2.77;100.00
14818;BME280;7500;57.698;11.986;2023-01-27T11:53:40;103302.19;;;2.81;100.00
14818;BME280;7500;57.698;11.986;2023-01-27T11:56:14;103306.53;;;2.82;100.00
14818;BME280;7500;57.698;11.986;2023-01-27T11:58:46;103308.44;;;2.87;100.00
14818;BME280;7500;57.698;11.986;2023-01-27T12:01:16;103299.78;;;2.91;100.00
14818;BME280;7500;57.698;11.986;2023-01-27T12:03:51;103297.34;;;2.99;100.00
14818;BME280;7500;57.698;11.986;2023-01-27T12:06:30;103288.75;;;3.03;100.00
14818;BME280;7500;57.698;11.986;2023-01-27T12:08:59;103281.00;;;3.09;100.00
14818;BME280;7500;57.698;11.986;2023-01-27T12:11:27;103276.75;;;3.14;100.00
14818;BME280;7500;57.698;11.986;2023-01-27T12:13:56;103273.34;;;3.16;100.00
14818;BME280;7500;57.698;11.986;2023-01-27T12:16:27;103267.31;;;3.20;100.00
14818;BME280;7500;57.698;11.986;2023-01-27T12:19:00;103253.44;;;3.21;100.00
14818;BME280;7500;57.698;11.986;2023-01-27T12:21:41;103257.94;;;3.30;100.00
14818;BME280;7500;57.698;11.986;2023-01-27T12:24:21;103260.59;;;3.33;100.00
14818;BME280;7500;57.698;11.986;2023-01-27T12:26:50;103252.03;;;3.39;100.00
14818;BME280;7500;57.698;11.986;2023-01-27T12:29:19;103240.75;;;3.43;100.00
14818;BME280;7500;57.698;11.986;2023-01-27T12:31:52;103219.72;;;3.34;100.00
14818;BME280;7500;57.698;11.986;2023-01-27T12:34:26;103236.47;;;3.47;100.00
14818;BME280;7500;57.698;11.986;2023-01-27T12:36:57;103239.88;;;3.43;100.00
14818;BME280;7500;57.698;11.986;2023-01-27T12:39:41;103240.75;;;3.43;100.00
14818;BME280;7500;57.698;11.986;2023-01-27T12:42:32;103228.72;;;3.51;100.00
14818;BME280;7500;57.698;11.986;2023-01-27T12:45:16;103232.34;;;3.59;100.00
14818;BME280;7500;57.698;11.986;2023-01-27T12:47:55;103235.84;;;3.61;100.00
14818;BME280;7500;57.698;11.986;2023-01-27T12:50:24;103227.16;;;3.62;100.00
14818;BME280;7500;57.698;11.986;2023-01-27T12:53:04;103225.47;;;3.64;100.00
14818;BME280;7500;57.698;11.986;2023-01-27T12:55:33;103219.38;;;3.67;100.00
14818;BME280;7500;57.698;11.986;2023-01-27T12:58:00;103210.69;;;3.68;100.00
14818;BME280;7500;57.698;11.986;2023-01-27T13:00:28;103215.06;;;3.67;100.00
14818;BME280;7500;57.698;11.986;2023-01-27T13:03:02;103205.50;;;3.69;100.00
14818;BME280;7500;57.698;11.986;2023-01-27T13:05:35;103231.66;;;3.71;100.00
14818;BME280;7500;57.698;11.986;2023-01-27T13:08:05;103225.63;;;3.73;100.00
14818;BME280;7500;57.698;11.986;2023-01-27T13:10:38;103229.94;;;3.74;100.00